Time;durP1;ratioP1;P1;durP2;ratioP2;P2;SDS_P1;SDS_P2;PMS_P1;PMS_P2;Temp;Humidity;BMP_temperature;BMP_pressure;BME280_temperature;BME280_humidity;BME280_pressure;Samples;Min_cycle;Max_cycle;Signal;HPM_P1;HPM_P2
2023/12/05 17:28:04;;;;;;;;;;;;;;;12.33;46.78;100277.09;5095426;27;19924;-80
2023/12/05 17:30:53;;;;;;;;;;;;;;;10.20;53.15;100279.75;5094433;28;19921;-79
2023/12/05 17:33:38;;;;;;;;;;;;;;;8.78;59.05;100280.56;5097123;28;19920;-79
2023/12/05 17:36:27;;;;;;;;;;;;;;;8.08;61.53;100283.19;5091291;28;19920;-82
2023/12/05 17:39:17;;;;;;;;;;;;;;;7.66;64.42;100282.59;5091977;28;19923;-80
2023/12/05 17:42:06;;;;;;;;;;;;;;;7.47;66.53;100275.72;5082045;28;19917;-79
2023/12/05 17:44:56;;;;;;;;;;;;;;;7.34;67.06;100271.97;5087021;28;19916;-78
2023/12/05 17:47:48;;;;;;;;;;;;;;;7.13;68.05;100273.50;5083738;28;19920;-78
2023/12/05 17:50:40;;;;;;;;;;;;;;;7.02;69.29;100275.59;5096115;28;19923;-76
2023/12/05 17:53:34;;;;;;;;;;;;;;;6.97;69.54;100270.31;5090880;28;19931;-78
2023/12/05 17:56:26;;;;;;;;;;;;;;;6.81;69.32;100269.81;5090787;28;19924;-77
2023/12/05 17:59:18;;;;;;;;;;;;;;;6.90;69.80;100271.84;5081196;28;19916;-78
2023/12/05 18:02:10;;;;;;;;;;;;;;;6.88;69.61;100269.41;5092754;28;19916;-80
2023/12/05 18:05:02;;;;;;;;;;;;;;;6.82;69.90;100267.91;5089401;28;19920;-79
2023/12/05 18:07:54;;;;;;;;;;;;;;;6.82;70.90;100270.63;5084128;28;19921;-80
2023/12/05 18:10:44;;;;;;;;;;;;;;;6.85;70.52;100267.34;5086734;28;19916;-77
2023/12/05 18:13:36;;;;;;;;;;;;;;;6.98;70.49;100263.81;5081471;28;19924;-77
2023/12/05 18:16:26;;;;;;;;;;;;;;;6.84;70.69;100263.81;5088555;28;19916;-78
2023/12/05 18:19:16;;;;;;;;;;;;;;;6.94;70.42;100270.13;5089166;28;19920;-78
2023/12/05 18:22:05;;;;;;;;;;;;;;;6.99;70.40;100267.31;5083953;28;20385;-78
2023/12/05 18:24:55;;;;;;;;;;;;;;;6.90;70.39;100261.81;5086495;28;19916;-78
2023/12/05 18:27:44;;;;;;;;;;;;;;;6.91;71.06;100268.81;5081633;28;19920;-76
2023/12/05 18:30:33;;;;;;;;;;;;;;;6.84;70.91;100274.63;5090229;28;19920;-76
2023/12/05 18:33:24;;;;;;;;;;;;;;;6.68;70.96;100275.22;5093131;28;20309;-77
2023/12/05 18:36:21;;;;;;;;;;;;;;;6.76;71.80;100283.44;5080677;28;19920;-77
2023/12/05 18:39:13;;;;;;;;;;;;;;;6.72;72.04;100277.03;5077561;28;19916;-77
2023/12/05 18:42:03;;;;;;;;;;;;;;;6.68;72.18;100280.63;5073367;28;20297;-77
2023/12/05 18:44:52;;;;;;;;;;;;;;;6.76;71.68;100274.53;5080884;28;19916;-78
2023/12/05 18:47:44;;;;;;;;;;;;;;;6.80;71.67;100284.44;5063761;28;19921;-80
2023/12/05 18:50:36;;;;;;;;;;;;;;;6.62;72.62;100288.03;5063430;28;19920;-79
2023/12/05 18:53:29;;;;;;;;;;;;;;;6.79;72.14;100277.44;5078896;28;19916;-77
2023/12/05 18:56:21;;;;;;;;;;;;;;;6.71;71.59;100286.22;5074391;28;19917;-77
2023/12/05 18:59:13;;;;;;;;;;;;;;;6.76;71.31;100286.13;5079809;28;20301;-77
2023/12/05 19:02:05;;;;;;;;;;;;;;;6.67;71.78;100293.34;5072925;28;19916;-77
2023/12/05 19:04:55;;;;;;;;;;;;;;;6.58;71.65;100286.22;5070759;28;19916;-79
2023/12/05 19:07:44;;;;;;;;;;;;;;;6.60;71.71;100287.56;5068060;28;19928;-78
2023/12/05 19:10:31;;;;;;;;;;;;;;;6.63;71.76;100281.53;5075819;28;19999;-77
2023/12/05 19:13:23;;;;;;;;;;;;;;;6.59;71.52;100283.25;5077054;28;20326;-77
2023/12/05 19:16:16;;;;;;;;;;;;;;;6.50;71.55;100281.53;5076994;28;19924;-78
2023/12/05 19:19:08;;;;;;;;;;;;;;;6.51;72.01;100283.09;5072524;28;20378;-78
2023/12/05 19:22:00;;;;;;;;;;;;;;;6.48;72.19;100275.63;5073999;28;19920;-78
2023/12/05 19:24:53;;;;;;;;;;;;;;;6.47;72.09;100276.72;5066853;28;19917;-78
2023/12/05 19:27:46;;;;;;;;;;;;;;;6.58;72.06;100280.81;5072726;28;19921;-78
2023/12/05 19:30:36;;;;;;;;;;;;;;;6.56;72.36;100275.72;5052878;28;19920;-78
2023/12/05 19:33:20;;;;;;;;;;;;;;;6.63;71.83;100270.72;5061633;28;20308;-76
2023/12/05 19:36:12;;;;;;;;;;;;;;;6.63;71.53;100275.31;5062263;28;20378;-76
2023/12/05 19:39:04;;;;;;;;;;;;;;;6.71;72.20;100272.72;5056770;28;19917;-77
2023/12/05 19:41:56;;;;;;;;;;;;;;;6.70;71.13;100270.34;5062759;28;19928;-78
2023/12/05 19:44:43;;;;;;;;;;;;;;;6.49;72.04;100272.63;5067140;28;19916;-78
2023/12/05 19:47:35;;;;;;;;;;;;;;;6.37;71.96;100270.41;5078354;28;19951;-78
2023/12/05 19:50:28;;;;;;;;;;;;;;;6.34;71.85;100264.81;5061643;28;19916;-79
2023/12/05 19:53:20;;;;;;;;;;;;;;;6.32;72.33;100272.38;5076965;28;19917;-79
2023/12/05 19:56:05;;;;;;;;;;;;;;;6.31;72.57;100268.09;5058634;28;20309;-78
2023/12/05 19:58:55;;;;;;;;;;;;;;;6.23;72.97;100276.88;5073563;28;19920;-78
2023/12/05 20:01:47;;;;;;;;;;;;;;;6.36;73.01;100262.59;5073533;28;19917;-80
2023/12/05 20:04:39;;;;;;;;;;;;;;;6.40;72.34;100267.09;5079229;28;19916;-79
2023/12/05 20:07:33;;;;;;;;;;;;;;;6.41;72.17;100268.69;5065661;28;19925;-76
2023/12/05 20:10:22;;;;;;;;;;;;;;;6.37;72.36;100253.41;5064280;28;19916;-79
2023/12/05 20:13:14;;;;;;;;;;;;;;;6.36;72.31;100251.78;5060268;28;19925;-78
2023/12/05 20:16:06;;;;;;;;;;;;;;;6.41;72.30;100249.00;5063748;28;19921;-78
2023/12/05 20:18:58;;;;;;;;;;;;;;;6.39;72.20;100253.91;5065848;28;19920;-79
2023/12/05 20:21:50;;;;;;;;;;;;;;;6.33;72.54;100247.00;5053006;28;19916;-80
2023/12/05 20:24:40;;;;;;;;;;;;;;;6.40;72.36;100247.38;5065536;28;19916;-76
2023/12/05 20:27:29;;;;;;;;;;;;;;;6.34;72.11;100245.91;5075694;28;19920;-78
2023/12/05 20:30:21;;;;;;;;;;;;;;;6.28;71.88;100239.00;5075703;28;19916;-77
2023/12/05 20:33:13;;;;;;;;;;;;;;;6.32;72.75;100235.41;5077928;28;20384;-78
2023/12/05 20:36:02;;;;;;;;;;;;;;;6.34;72.60;100230.50;5051903;28;20321;-80
2023/12/05 20:38:53;;;;;;;;;;;;;;;6.39;72.58;100233.13;5072783;28;20304;-81
2023/12/05 20:41:47;;;;;;;;;;;;;;;6.34;72.93;100221.59;5066651;28;19920;-77
2023/12/05 20:44:42;;;;;;;;;;;;;;;6.24;72.85;100216.41;5085003;28;19917;-76
2023/12/05 20:47:31;;;;;;;;;;;;;;;6.30;72.56;100209.78;5051240;28;19921;-77
2023/12/05 20:50:23;;;;;;;;;;;;;;;6.29;72.10;100205.50;5064150;28;19916;-79
2023/12/05 20:53:15;;;;;;;;;;;;;;;6.31;72.90;100208.69;5061557;28;19920;-77
2023/12/05 20:56:07;;;;;;;;;;;;;;;6.38;72.36;100209.09;5078225;28;19916;-78
2023/12/05 20:58:59;;;;;;;;;;;;;;;6.48;72.31;100214.31;5086632;28;19916;-79
2023/12/05 21:01:52;;;;;;;;;;;;;;;6.46;71.76;100208.38;5092720;28;19916;-75
2023/12/05 21:04:41;;;;;;;;;;;;;;;6.53;71.75;100208.81;5091664;28;20308;-76
2023/12/05 21:07:33;;;;;;;;;;;;;;;6.45;71.85;100217.59;5075135;28;19921;-80
2023/12/05 21:10:23;;;;;;;;;;;;;;;6.41;72.22;100230.09;5065125;28;19917;-76
2023/12/05 21:13:13;;;;;;;;;;;;;;;6.27;71.98;100226.59;5059283;28;20308;-77
2023/12/05 21:16:05;;;;;;;;;;;;;;;6.19;72.63;100232.69;5072073;28;19917;-79
2023/12/05 21:18:57;;;;;;;;;;;;;;;6.25;72.67;100228.78;5070488;28;19920;-77
2023/12/05 21:21:46;;;;;;;;;;;;;;;6.39;72.44;100225.00;5074085;28;19916;-77
2023/12/05 21:24:36;;;;;;;;;;;;;;;6.43;72.50;100222.50;5071964;28;19917;-77
2023/12/05 21:27:25;;;;;;;;;;;;;;;6.40;71.88;100220.38;5071882;28;20336;-77
2023/12/05 21:30:17;;;;;;;;;;;;;;;6.42;72.40;100231.69;5073328;28;19920;-77
2023/12/05 21:33:09;;;;;;;;;;;;;;;6.20;72.86;100236.97;5057881;28;19916;-76
2023/12/05 21:35:58;;;;;;;;;;;;;;;6.13;72.84;100239.28;5071100;28;19917;-77
2023/12/05 21:38:50;;;;;;;;;;;;;;;6.06;73.98;100244.25;5058552;28;19916;-77
2023/12/05 21:41:40;;;;;;;;;;;;;;;6.08;73.16;100242.84;5064959;28;19920;-76
2023/12/05 21:44:29;;;;;;;;;;;;;;;6.24;73.47;100252.28;5074675;28;20384;-76
2023/12/05 21:47:21;;;;;;;;;;;;;;;6.26;74.35;100241.19;5072176;28;19920;-77
2023/12/05 21:50:11;;;;;;;;;;;;;;;6.32;73.34;100248.09;5071799;28;19916;-76
2023/12/05 21:53:06;;;;;;;;;;;;;;;6.27;74.01;100245.47;5073525;28;19917;-77
2023/12/05 21:55:58;;;;;;;;;;;;;;;6.30;73.95;100242.97;5070675;28;19916;-78
2023/12/05 21:58:50;;;;;;;;;;;;;;;6.28;73.88;100244.38;5074190;28;19916;-76
2023/12/05 22:01:39;;;;;;;;;;;;;;;6.31;73.65;100249.19;5070977;28;20293;-77
2023/12/05 22:04:26;;;;;;;;;;;;;;;6.35;74.34;100247.47;5057579;28;19916;-77
2023/12/05 22:07:16;;;;;;;;;;;;;;;6.38;73.41;100246.91;5076910;28;20416;-75
2023/12/05 22:10:06;;;;;;;;;;;;;;;6.49;72.57;100251.03;5053053;28;19920;-77
2023/12/05 22:12:55;;;;;;;;;;;;;;;6.36;72.75;100268.00;5056653;28;19917;-77
2023/12/05 22:15:44;;;;;;;;;;;;;;;6.26;72.71;100262.78;5057941;28;19916;-77
2023/12/05 22:18:34;;;;;;;;;;;;;;;6.37;73.60;100269.59;5055654;28;19921;-77
2023/12/05 22:21:26;;;;;;;;;;;;;;;6.22;74.20;100272.56;5059466;28;20317;-76
2023/12/05 22:24:16;;;;;;;;;;;;;;;6.38;73.99;100263.09;5057297;28;19916;-75
2023/12/05 22:27:05;;;;;;;;;;;;;;;6.41;73.51;100255.19;5065038;28;19920;-77
2023/12/05 22:29:57;;;;;;;;;;;;;;;6.46;73.05;100259.69;5079140;28;19920;-78
2023/12/05 22:32:46;;;;;;;;;;;;;;;6.45;73.22;100266.19;5065526;28;19924;-76
2023/12/05 22:35:43;;;;;;;;;;;;;;;6.47;72.95;100269.41;5078212;28;20656;-80
2023/12/05 22:38:32;;;;;;;;;;;;;;;6.56;74.24;100272.22;5081616;28;19916;-78
2023/12/05 22:41:22;;;;;;;;;;;;;;;6.70;72.45;100265.75;5079611;28;19917;-77
2023/12/05 22:44:11;;;;;;;;;;;;;;;6.66;72.24;100267.41;5069235;28;19920;-76
2023/12/05 22:47:03;;;;;;;;;;;;;;;6.62;72.42;100265.63;5075269;28;19924;-76
2023/12/05 22:49:53;;;;;;;;;;;;;;;6.61;71.73;100270.22;5055800;28;19920;-78
2023/12/05 22:52:43;;;;;;;;;;;;;;;6.69;71.99;100277.63;5045763;28;19917;-78
2023/12/05 22:55:35;;;;;;;;;;;;;;;6.62;72.26;100282.63;5054708;28;19917;-77
2023/12/05 22:58:27;;;;;;;;;;;;;;;6.61;71.66;100286.44;5054182;28;19917;-76
2023/12/05 23:01:19;;;;;;;;;;;;;;;6.50;71.46;100285.03;5057449;28;19920;-77
2023/12/05 23:04:11;;;;;;;;;;;;;;;6.41;72.22;100282.19;5054897;28;20389;-76
2023/12/05 23:07:01;;;;;;;;;;;;;;;6.41;71.38;100292.19;5053641;28;19925;-77
2023/12/05 23:09:53;;;;;;;;;;;;;;;6.40;71.34;100291.41;5056306;28;19921;-75
2023/12/05 23:12:43;;;;;;;;;;;;;;;6.42;71.83;100289.22;5040621;28;19917;-77
2023/12/05 23:15:32;;;;;;;;;;;;;;;6.41;71.99;100294.91;5058129;28;19921;-76
2023/12/05 23:18:19;;;;;;;;;;;;;;;6.13;72.24;100296.75;5055434;28;19917;-77
2023/12/05 23:21:11;;;;;;;;;;;;;;;6.24;71.85;100289.28;5052950;28;19917;-77
2023/12/05 23:24:03;;;;;;;;;;;;;;;6.19;71.98;100287.47;5053682;28;19916;-76
2023/12/05 23:26:54;;;;;;;;;;;;;;;6.14;71.60;100289.47;5068653;28;19920;-76
2023/12/05 23:29:46;;;;;;;;;;;;;;;6.19;70.84;100283.97;5072446;28;19921;-76
2023/12/05 23:32:38;;;;;;;;;;;;;;;6.31;71.76;100281.59;5075110;28;20316;-77
2023/12/05 23:35:30;;;;;;;;;;;;;;;6.41;72.11;100270.59;5061118;28;19950;-76
2023/12/05 23:38:22;;;;;;;;;;;;;;;6.46;70.94;100278.59;5072804;28;20374;-76
2023/12/05 23:41:14;;;;;;;;;;;;;;;6.50;70.98;100273.44;5063174;28;20381;-76
2023/12/05 23:44:06;;;;;;;;;;;;;;;6.45;70.31;100267.00;5074590;28;19921;-76
2023/12/05 23:46:57;;;;;;;;;;;;;;;6.41;70.94;100273.28;5063000;28;19916;-76
2023/12/05 23:49:47;;;;;;;;;;;;;;;6.59;71.30;100277.84;5072836;28;19917;-76
2023/12/05 23:52:39;;;;;;;;;;;;;;;6.56;70.71;100262.22;5059594;28;19936;-78
2023/12/05 23:55:31;;;;;;;;;;;;;;;6.75;71.31;100259.44;5062552;28;19920;-74
2023/12/05 23:58:20;;;;;;;;;;;;;;;6.69;70.78;100261.44;5074095;28;19916;-76
